sensor_id;sensor_type;location;lat;lon;timestamp;P1;durP1;ratioP1;P2;durP2;ratioP2
49310;SDS011;35177;45.900;5.946;2023-06-19T00:01:42;4.65;;;3.20;;
49310;SDS011;35177;45.900;5.946;2023-06-19T00:04:07;3.38;;;3.00;;
49310;SDS011;35177;45.900;5.946;2023-06-19T00:06:34;3.65;;;3.00;;
49310;SDS011;35177;45.900;5.946;2023-06-19T00:08:59;5.60;;;3.50;;
49310;SDS011;35177;45.900;5.946;2023-06-19T00:11:25;5.47;;;3.60;;
49310;SDS011;35177;45.900;5.946;2023-06-19T00:13:50;4.93;;;3.90;;
49310;SDS011;35177;45.900;5.946;2023-06-19T00:16:16;5.50;;;3.95;;
49310;SDS011;35177;45.900;5.946;2023-06-19T00:18:41;4.10;;;3.33;;
49310;SDS011;35177;45.900;5.946;2023-06-19T00:21:07;7.75;;;3.58;;
49310;SDS011;35177;45.900;5.946;2023-06-19T00:23:33;6.60;;;3.65;;
49310;SDS011;35177;45.900;5.946;2023-06-19T00:25:59;8.02;;;3.47;;
49310;SDS011;35177;45.900;5.946;2023-06-19T00:28:26;4.35;;;3.58;;
49310;SDS011;35177;45.900;5.946;2023-06-19T00:30:53;5.72;;;3.63;;
49310;SDS011;35177;45.900;5.946;2023-06-19T00:33:18;6.00;;;3.50;;
49310;SDS011;35177;45.900;5.946;2023-06-19T00:35:44;4.40;;;3.78;;
49310;SDS011;35177;45.900;5.946;2023-06-19T00:38:09;4.32;;;3.45;;
49310;SDS011;35177;45.900;5.946;2023-06-19T00:40:35;6.00;;;3.85;;
49310;SDS011;35177;45.900;5.946;2023-06-19T00:43:01;4.47;;;3.80;;
49310;SDS011;35177;45.900;5.946;2023-06-19T00:45:27;8.85;;;4.28;;
49310;SDS011;35177;45.900;5.946;2023-06-19T00:47:53;4.68;;;4.22;;
49310;SDS011;35177;45.900;5.946;2023-06-19T00:50:22;5.75;;;4.32;;
49310;SDS011;35177;45.900;5.946;2023-06-19T00:52:48;6.15;;;3.67;;
49310;SDS011;35177;45.900;5.946;2023-06-19T00:55:14;5.43;;;4.10;;
49310;SDS011;35177;45.900;5.946;2023-06-19T00:57:41;4.03;;;3.63;;
49310;SDS011;35177;45.900;5.946;2023-06-19T01:00:07;4.30;;;3.65;;
49310;SDS011;35177;45.900;5.946;2023-06-19T01:02:34;5.82;;;3.97;;
49310;SDS011;35177;45.900;5.946;2023-06-19T01:05:00;6.13;;;4.18;;
49310;SDS011;35177;45.900;5.946;2023-06-19T01:07:32;7.97;;;4.35;;
49310;SDS011;35177;45.900;5.946;2023-06-19T01:10:15;5.75;;;4.05;;
49310;SDS011;35177;45.900;5.946;2023-06-19T01:12:45;4.82;;;3.92;;
49310;SDS011;35177;45.900;5.946;2023-06-19T01:15:17;7.43;;;4.32;;
49310;SDS011;35177;45.900;5.946;2023-06-19T01:17:43;6.60;;;4.32;;
49310;SDS011;35177;45.900;5.946;2023-06-19T01:20:11;5.32;;;4.30;;
49310;SDS011;35177;45.900;5.946;2023-06-19T01:22:37;4.72;;;4.20;;
49310;SDS011;35177;45.900;5.946;2023-06-19T01:25:03;4.88;;;3.60;;
49310;SDS011;35177;45.900;5.946;2023-06-19T01:27:30;5.63;;;4.40;;
49310;SDS011;35177;45.900;5.946;2023-06-19T01:29:56;5.18;;;4.00;;
49310;SDS011;35177;45.900;5.946;2023-06-19T01:32:39;5.28;;;4.40;;
49310;SDS011;35177;45.900;5.946;2023-06-19T01:35:09;5.10;;;3.92;;
49310;SDS011;35177;45.900;5.946;2023-06-19T01:37:37;6.80;;;4.30;;
49310;SDS011;35177;45.900;5.946;2023-06-19T01:40:05;8.25;;;4.47;;
49310;SDS011;35177;45.900;5.946;2023-06-19T01:42:34;9.20;;;4.80;;
49310;SDS011;35177;45.900;5.946;2023-06-19T01:45:02;5.55;;;4.35;;
49310;SDS011;35177;45.900;5.946;2023-06-19T01:47:29;6.25;;;3.80;;
49310;SDS011;35177;45.900;5.946;2023-06-19T01:49:54;7.18;;;4.43;;
49310;SDS011;35177;45.900;5.946;2023-06-19T01:52:20;4.93;;;3.47;;
49310;SDS011;35177;45.900;5.946;2023-06-19T01:54:45;4.80;;;3.83;;
49310;SDS011;35177;45.900;5.946;2023-06-19T01:57:10;7.45;;;4.47;;
49310;SDS011;35177;45.900;5.946;2023-06-19T01:59:37;6.90;;;4.45;;
49310;SDS011;35177;45.900;5.946;2023-06-19T02:02:03;7.82;;;4.50;;
49310;SDS011;35177;45.900;5.946;2023-06-19T02:04:29;5.93;;;4.85;;
49310;SDS011;35177;45.900;5.946;2023-06-19T02:06:55;6.78;;;4.20;;
49310;SDS011;35177;45.900;5.946;2023-06-19T02:09:20;5.82;;;4.13;;
49310;SDS011;35177;45.900;5.946;2023-06-19T02:11:46;5.43;;;4.22;;
49310;SDS011;35177;45.900;5.946;2023-06-19T02:14:11;5.38;;;4.03;;
49310;SDS011;35177;45.900;5.946;2023-06-19T02:16:37;5.85;;;4.60;;
49310;SDS011;35177;45.900;5.946;2023-06-19T02:19:02;6.32;;;4.65;;
49310;SDS011;35177;45.900;5.946;2023-06-19T02:21:28;5.38;;;4.38;;
49310;SDS011;35177;45.900;5.946;2023-06-19T02:23:53;6.57;;;4.53;;
49310;SDS011;35177;45.900;5.946;2023-06-19T02:26:19;8.43;;;4.82;;
49310;SDS011;35177;45.900;5.946;2023-06-19T02:28:44;4.43;;;3.78;;
49310;SDS011;35177;45.900;5.946;2023-06-19T02:31:10;6.60;;;4.53;;
49310;SDS011;35177;45.900;5.946;2023-06-19T02:33:35;7.05;;;4.80;;
49310;SDS011;35177;45.900;5.946;2023-06-19T02:36:01;7.10;;;4.50;;
49310;SDS011;35177;45.900;5.946;2023-06-19T02:38:28;5.57;;;4.70;;
49310;SDS011;35177;45.900;5.946;2023-06-19T02:40:54;7.30;;;4.60;;
49310;SDS011;35177;45.900;5.946;2023-06-19T02:43:22;6.10;;;4.63;;
49310;SDS011;35177;45.900;5.946;2023-06-19T02:45:48;8.40;;;4.78;;
49310;SDS011;35177;45.900;5.946;2023-06-19T02:48:13;7.85;;;4.45;;
49310;SDS011;35177;45.900;5.946;2023-06-19T02:50:39;8.00;;;5.15;;
49310;SDS011;35177;45.900;5.946;2023-06-19T02:53:04;5.72;;;4.40;;
49310;SDS011;35177;45.900;5.946;2023-06-19T02:55:30;7.88;;;4.30;;
49310;SDS011;35177;45.900;5.946;2023-06-19T02:57:55;6.13;;;4.55;;
49310;SDS011;35177;45.900;5.946;2023-06-19T03:00:21;4.97;;;3.97;;
49310;SDS011;35177;45.900;5.946;2023-06-19T03:02:46;8.80;;;4.40;;
49310;SDS011;35177;45.900;5.946;2023-06-19T03:05:13;6.72;;;4.55;;
49310;SDS011;35177;45.900;5.946;2023-06-19T03:07:41;5.28;;;4.28;;
49310;SDS011;35177;45.900;5.946;2023-06-19T03:10:07;8.45;;;4.80;;
49310;SDS011;35177;45.900;5.946;2023-06-19T03:12:33;9.43;;;5.45;;
49310;SDS011;35177;45.900;5.946;2023-06-19T03:14:58;5.88;;;4.53;;
49310;SDS011;35177;45.900;5.946;2023-06-19T03:17:24;7.65;;;5.40;;
49310;SDS011;35177;45.900;5.946;2023-06-19T03:19:49;7.57;;;5.15;;
49310;SDS011;35177;45.900;5.946;2023-06-19T03:22:14;6.22;;;4.95;;
49310;SDS011;35177;45.900;5.946;2023-06-19T03:24:40;5.15;;;4.65;;
49310;SDS011;35177;45.900;5.946;2023-06-19T03:27:06;8.18;;;4.45;;
49310;SDS011;35177;45.900;5.946;2023-06-19T03:29:31;6.82;;;4.90;;
49310;SDS011;35177;45.900;5.946;2023-06-19T03:31:57;7.93;;;5.35;;
49310;SDS011;35177;45.900;5.946;2023-06-19T03:34:22;6.88;;;5.10;;
49310;SDS011;35177;45.900;5.946;2023-06-19T03:36:47;5.53;;;4.97;;
49310;SDS011;35177;45.900;5.946;2023-06-19T03:39:13;6.00;;;4.70;;
49310;SDS011;35177;45.900;5.946;2023-06-19T03:41:39;6.28;;;5.25;;
49310;SDS011;35177;45.900;5.946;2023-06-19T03:44:04;5.55;;;4.45;;
49310;SDS011;35177;45.900;5.946;2023-06-19T03:46:30;6.93;;;4.90;;
49310;SDS011;35177;45.900;5.946;2023-06-19T03:48:55;8.43;;;4.70;;
49310;SDS011;35177;45.900;5.946;2023-06-19T03:51:21;6.30;;;5.50;;
49310;SDS011;35177;45.900;5.946;2023-06-19T03:53:46;7.55;;;5.45;;
49310;SDS011;35177;45.900;5.946;2023-06-19T03:56:12;8.63;;;5.18;;
49310;SDS011;35177;45.900;5.946;2023-06-19T03:58:37;7.50;;;5.20;;
49310;SDS011;35177;45.900;5.946;2023-06-19T04:01:03;6.55;;;5.22;;
49310;SDS011;35177;45.900;5.946;2023-06-19T04:03:28;5.72;;;4.82;;
49310;SDS011;35177;45.900;5.946;2023-06-19T04:05:54;6.07;;;4.90;;
49310;SDS011;35177;45.900;5.946;2023-06-19T04:08:19;5.22;;;4.72;;
49310;SDS011;35177;45.900;5.946;2023-06-19T04:10:45;5.57;;;4.90;;
49310;SDS011;35177;45.900;5.946;2023-06-19T04:13:11;7.15;;;5.35;;
49310;SDS011;35177;45.900;5.946;2023-06-19T04:15:36;6.25;;;4.47;;
49310;SDS011;35177;45.900;5.946;2023-06-19T04:18:02;5.75;;;4.57;;
49310;SDS011;35177;45.900;5.946;2023-06-19T04:20:28;7.38;;;5.38;;
49310;SDS011;35177;45.900;5.946;2023-06-19T04:22:53;10.82;;;5.25;;
49310;SDS011;35177;45.900;5.946;2023-06-19T04:25:19;6.07;;;5.30;;
49310;SDS011;35177;45.900;5.946;2023-06-19T04:27:44;6.05;;;4.97;;
49310;SDS011;35177;45.900;5.946;2023-06-19T04:30:10;7.95;;;5.35;;
49310;SDS011;35177;45.900;5.946;2023-06-19T04:32:36;6.55;;;4.88;;
49310;SDS011;35177;45.900;5.946;2023-06-19T04:35:05;6.15;;;5.35;;
49310;SDS011;35177;45.900;5.946;2023-06-19T04:37:35;8.27;;;5.40;;
49310;SDS011;35177;45.900;5.946;2023-06-19T04:40:00;5.85;;;5.15;;
49310;SDS011;35177;45.900;5.946;2023-06-19T04:42:26;5.78;;;4.90;;
49310;SDS011;35177;45.900;5.946;2023-06-19T04:44:52;5.88;;;4.25;;
49310;SDS011;35177;45.900;5.946;2023-06-19T04:47:20;7.15;;;5.13;;
49310;SDS011;35177;45.900;5.946;2023-06-19T04:49:47;6.20;;;4.93;;
49310;SDS011;35177;45.900;5.946;2023-06-19T04:52:12;8.98;;;5.68;;
49310;SDS011;35177;45.900;5.946;2023-06-19T04:54:38;5.97;;;5.35;;
49310;SDS011;35177;45.900;5.946;2023-06-19T04:57:03;9.40;;;5.20;;
49310;SDS011;35177;45.900;5.946;2023-06-19T04:59:30;7.43;;;5.20;;
49310;SDS011;35177;45.900;5.946;2023-06-19T05:01:56;6.13;;;5.20;;
49310;SDS011;35177;45.900;5.946;2023-06-19T05:04:21;10.77;;;6.35;;
49310;SDS011;35177;45.900;5.946;2023-06-19T05:06:47;5.68;;;4.82;;
49310;SDS011;35177;45.900;5.946;2023-06-19T05:09:16;7.03;;;5.70;;
49310;SDS011;35177;45.900;5.946;2023-06-19T05:11:42;8.13;;;6.25;;
49310;SDS011;35177;45.900;5.946;2023-06-19T05:14:07;8.32;;;6.13;;
49310;SDS011;35177;45.900;5.946;2023-06-19T05:16:33;5.15;;;4.55;;
49310;SDS011;35177;45.900;5.946;2023-06-19T05:18:59;7.25;;;5.35;;
49310;SDS011;35177;45.900;5.946;2023-06-19T05:21:24;6.80;;;5.05;;
49310;SDS011;35177;45.900;5.946;2023-06-19T05:23:50;8.07;;;5.57;;
49310;SDS011;35177;45.900;5.946;2023-06-19T05:26:17;6.63;;;5.10;;
49310;SDS011;35177;45.900;5.946;2023-06-19T05:28:44;7.38;;;5.60;;
49310;SDS011;35177;45.900;5.946;2023-06-19T05:31:09;6.32;;;5.13;;
49310;SDS011;35177;45.900;5.946;2023-06-19T05:33:34;6.07;;;5.18;;
49310;SDS011;35177;45.900;5.946;2023-06-19T05:36:00;8.50;;;4.80;;
49310;SDS011;35177;45.900;5.946;2023-06-19T05:38:26;6.43;;;4.80;;
49310;SDS011;35177;45.900;5.946;2023-06-19T05:40:53;8.10;;;5.38;;
49310;SDS011;35177;45.900;5.946;2023-06-19T05:43:19;6.45;;;5.10;;
49310;SDS011;35177;45.900;5.946;2023-06-19T05:45:44;6.68;;;5.20;;
49310;SDS011;35177;45.900;5.946;2023-06-19T05:48:09;9.18;;;5.28;;
49310;SDS011;35177;45.900;5.946;2023-06-19T05:50:35;5.53;;;4.97;;
49310;SDS011;35177;45.900;5.946;2023-06-19T05:53:00;5.07;;;4.57;;
49310;SDS011;35177;45.900;5.946;2023-06-19T05:55:26;5.57;;;4.95;;
49310;SDS011;35177;45.900;5.946;2023-06-19T05:57:55;7.88;;;5.55;;
49310;SDS011;35177;45.900;5.946;2023-06-19T06:00:21;5.75;;;5.05;;
49310;SDS011;35177;45.900;5.946;2023-06-19T06:02:47;6.68;;;5.20;;
49310;SDS011;35177;45.900;5.946;2023-06-19T06:05:13;7.50;;;4.65;;
49310;SDS011;35177;45.900;5.946;2023-06-19T06:07:38;8.00;;;5.20;;
49310;SDS011;35177;45.900;5.946;2023-06-19T06:10:05;6.07;;;4.82;;
49310;SDS011;35177;45.900;5.946;2023-06-19T06:12:34;6.30;;;4.20;;
49310;SDS011;35177;45.900;5.946;2023-06-19T06:15:00;7.22;;;4.68;;
49310;SDS011;35177;45.900;5.946;2023-06-19T06:17:27;6.10;;;4.72;;
49310;SDS011;35177;45.900;5.946;2023-06-19T06:19:52;5.65;;;4.55;;
49310;SDS011;35177;45.900;5.946;2023-06-19T06:22:18;7.13;;;4.63;;
49310;SDS011;35177;45.900;5.946;2023-06-19T06:24:44;7.28;;;5.00;;
49310;SDS011;35177;45.900;5.946;2023-06-19T06:27:11;6.43;;;4.80;;
49310;SDS011;35177;45.900;5.946;2023-06-19T06:29:37;5.80;;;4.80;;
49310;SDS011;35177;45.900;5.946;2023-06-19T06:32:06;5.57;;;4.93;;
49310;SDS011;35177;45.900;5.946;2023-06-19T06:34:35;6.18;;;5.13;;
49310;SDS011;35177;45.900;5.946;2023-06-19T06:37:01;6.43;;;5.10;;
49310;SDS011;35177;45.900;5.946;2023-06-19T06:39:26;9.23;;;5.68;;
49310;SDS011;35177;45.900;5.946;2023-06-19T06:41:52;8.10;;;5.13;;
49310;SDS011;35177;45.900;5.946;2023-06-19T06:44:20;7.68;;;6.18;;
49310;SDS011;35177;45.900;5.946;2023-06-19T06:46:45;7.03;;;4.78;;
49310;SDS011;35177;45.900;5.946;2023-06-19T06:49:11;5.72;;;5.13;;
49310;SDS011;35177;45.900;5.946;2023-06-19T06:51:36;6.18;;;4.78;;
49310;SDS011;35177;45.900;5.946;2023-06-19T06:54:02;10.05;;;5.20;;
49310;SDS011;35177;45.900;5.946;2023-06-19T06:56:27;6.43;;;5.28;;
49310;SDS011;35177;45.900;5.946;2023-06-19T06:58:53;7.05;;;5.30;;
49310;SDS011;35177;45.900;5.946;2023-06-19T07:01:18;6.93;;;5.18;;
49310;SDS011;35177;45.900;5.946;2023-06-19T07:03:44;8.45;;;5.47;;
49310;SDS011;35177;45.900;5.946;2023-06-19T07:06:09;8.38;;;5.05;;
49310;SDS011;35177;45.900;5.946;2023-06-19T07:08:35;16.25;;;5.50;;
49310;SDS011;35177;45.900;5.946;2023-06-19T07:11:00;6.80;;;5.20;;
49310;SDS011;35177;45.900;5.946;2023-06-19T07:13:26;7.50;;;5.05;;
49310;SDS011;35177;45.900;5.946;2023-06-19T07:15:52;8.13;;;5.80;;
49310;SDS011;35177;45.900;5.946;2023-06-19T07:18:17;5.93;;;5.25;;
49310;SDS011;35177;45.900;5.946;2023-06-19T07:20:43;5.95;;;4.75;;
49310;SDS011;35177;45.900;5.946;2023-06-19T07:23:09;6.30;;;5.00;;
49310;SDS011;35177;45.900;5.946;2023-06-19T07:25:35;7.47;;;5.43;;
49310;SDS011;35177;45.900;5.946;2023-06-19T07:28:00;6.40;;;5.80;;
49310;SDS011;35177;45.900;5.946;2023-06-19T07:30:26;7.70;;;5.68;;
49310;SDS011;35177;45.900;5.946;2023-06-19T07:32:52;8.00;;;5.65;;
49310;SDS011;35177;45.900;5.946;2023-06-19T07:35:17;11.18;;;6.10;;
49310;SDS011;35177;45.900;5.946;2023-06-19T07:37:44;9.43;;;5.25;;
49310;SDS011;35177;45.900;5.946;2023-06-19T07:40:10;8.57;;;5.88;;
49310;SDS011;35177;45.900;5.946;2023-06-19T07:42:36;9.52;;;6.05;;
49310;SDS011;35177;45.900;5.946;2023-06-19T07:45:01;9.60;;;5.63;;
49310;SDS011;35177;45.900;5.946;2023-06-19T07:47:27;6.30;;;5.45;;
49310;SDS011;35177;45.900;5.946;2023-06-19T07:49:52;12.07;;;5.55;;
49310;SDS011;35177;45.900;5.946;2023-06-19T07:52:18;12.63;;;6.40;;
49310;SDS011;35177;45.900;5.946;2023-06-19T07:54:51;6.72;;;5.60;;
49310;SDS011;35177;45.900;5.946;2023-06-19T07:57:18;8.05;;;6.03;;
49310;SDS011;35177;45.900;5.946;2023-06-19T07:59:43;9.43;;;6.18;;
49310;SDS011;35177;45.900;5.946;2023-06-19T08:02:10;7.85;;;6.53;;
49310;SDS011;35177;45.900;5.946;2023-06-19T08:04:36;9.52;;;6.40;;
49310;SDS011;35177;45.900;5.946;2023-06-19T08:07:01;8.43;;;6.15;;
49310;SDS011;35177;45.900;5.946;2023-06-19T08:09:27;9.48;;;6.35;;
49310;SDS011;35177;45.900;5.946;2023-06-19T08:11:52;7.38;;;6.28;;
49310;SDS011;35177;45.900;5.946;2023-06-19T08:14:18;8.88;;;6.97;;
49310;SDS011;35177;45.900;5.946;2023-06-19T08:16:43;9.75;;;7.63;;
49310;SDS011;35177;45.900;5.946;2023-06-19T08:19:08;10.32;;;7.53;;
49310;SDS011;35177;45.900;5.946;2023-06-19T08:21:34;9.05;;;6.45;;
49310;SDS011;35177;45.900;5.946;2023-06-19T08:23:59;7.80;;;6.75;;
49310;SDS011;35177;45.900;5.946;2023-06-19T08:26:25;8.43;;;6.70;;
49310;SDS011;35177;45.900;5.946;2023-06-19T08:28:50;8.40;;;6.60;;
49310;SDS011;35177;45.900;5.946;2023-06-19T08:31:16;10.65;;;7.82;;
49310;SDS011;35177;45.900;5.946;2023-06-19T08:33:41;16.50;;;7.80;;
49310;SDS011;35177;45.900;5.946;2023-06-19T08:36:07;10.43;;;7.70;;
49310;SDS011;35177;45.900;5.946;2023-06-19T08:38:32;8.70;;;5.88;;
49310;SDS011;35177;45.900;5.946;2023-06-19T08:40:58;7.65;;;6.85;;
49310;SDS011;35177;45.900;5.946;2023-06-19T08:43:24;8.52;;;6.85;;
49310;SDS011;35177;45.900;5.946;2023-06-19T08:45:55;8.43;;;7.03;;
49310;SDS011;35177;45.900;5.946;2023-06-19T08:48:50;9.93;;;6.90;;
49310;SDS011;35177;45.900;5.946;2023-06-19T08:51:16;9.30;;;6.72;;
49310;SDS011;35177;45.900;5.946;2023-06-19T08:53:46;11.18;;;7.28;;
49310;SDS011;35177;45.900;5.946;2023-06-19T08:56:13;9.10;;;6.65;;
49310;SDS011;35177;45.900;5.946;2023-06-19T08:58:38;10.20;;;6.70;;
49310;SDS011;35177;45.900;5.946;2023-06-19T09:01:04;10.23;;;6.60;;
49310;SDS011;35177;45.900;5.946;2023-06-19T09:03:30;11.52;;;6.90;;
49310;SDS011;35177;45.900;5.946;2023-06-19T09:05:55;7.53;;;5.88;;
49310;SDS011;35177;45.900;5.946;2023-06-19T09:08:21;6.40;;;5.80;;
49310;SDS011;35177;45.900;5.946;2023-06-19T09:13:45;10.52;;;6.07;;
49310;SDS011;35177;45.900;5.946;2023-06-19T09:16:20;10.80;;;6.32;;
49310;SDS011;35177;45.900;5.946;2023-06-19T09:18:48;8.30;;;5.88;;
49310;SDS011;35177;45.900;5.946;2023-06-19T09:21:20;9.10;;;6.25;;
49310;SDS011;35177;45.900;5.946;2023-06-19T09:23:49;12.68;;;6.00;;
49310;SDS011;35177;45.900;5.946;2023-06-19T09:26:16;11.48;;;5.60;;
49310;SDS011;35177;45.900;5.946;2023-06-19T09:28:44;10.68;;;6.75;;
49310;SDS011;35177;45.900;5.946;2023-06-19T09:31:10;7.35;;;5.35;;
49310;SDS011;35177;45.900;5.946;2023-06-19T09:33:37;6.93;;;5.35;;
49310;SDS011;35177;45.900;5.946;2023-06-19T09:36:04;6.50;;;5.28;;
49310;SDS011;35177;45.900;5.946;2023-06-19T09:38:31;7.63;;;5.30;;
49310;SDS011;35177;45.900;5.946;2023-06-19T09:41:00;9.35;;;5.10;;
49310;SDS011;35177;45.900;5.946;2023-06-19T09:43:36;8.48;;;5.35;;
49310;SDS011;35177;45.900;5.946;2023-06-19T09:46:04;8.40;;;5.10;;
49310;SDS011;35177;45.900;5.946;2023-06-19T09:48:32;8.23;;;5.55;;
49310;SDS011;35177;45.900;5.946;2023-06-19T09:51:06;11.25;;;5.43;;
49310;SDS011;35177;45.900;5.946;2023-06-19T09:53:37;4.95;;;4.45;;
49310;SDS011;35177;45.900;5.946;2023-06-19T09:56:02;6.15;;;4.70;;
49310;SDS011;35177;45.900;5.946;2023-06-19T09:58:28;5.93;;;4.85;;
49310;SDS011;35177;45.900;5.946;2023-06-19T10:00:55;6.30;;;5.22;;
49310;SDS011;35177;45.900;5.946;2023-06-19T10:03:29;6.63;;;4.75;;
49310;SDS011;35177;45.900;5.946;2023-06-19T10:08:27;6.05;;;4.10;;
49310;SDS011;35177;45.900;5.946;2023-06-19T10:10:54;7.57;;;4.55;;
49310;SDS011;35177;45.900;5.946;2023-06-19T10:13:20;7.20;;;4.82;;
49310;SDS011;35177;45.900;5.946;2023-06-19T10:15:46;5.13;;;4.57;;
49310;SDS011;35177;45.900;5.946;2023-06-19T10:18:16;5.15;;;4.20;;
49310;SDS011;35177;45.900;5.946;2023-06-19T10:20:43;7.47;;;4.70;;
49310;SDS011;35177;45.900;5.946;2023-06-19T10:23:11;7.35;;;5.10;;
49310;SDS011;35177;45.900;5.946;2023-06-19T10:25:38;4.80;;;4.30;;
49310;SDS011;35177;45.900;5.946;2023-06-19T10:28:15;8.02;;;5.07;;
49310;SDS011;35177;45.900;5.946;2023-06-19T10:30:41;6.70;;;4.53;;
49310;SDS011;35177;45.900;5.946;2023-06-19T10:33:07;4.88;;;3.88;;
49310;SDS011;35177;45.900;5.946;2023-06-19T10:35:39;6.60;;;4.47;;
49310;SDS011;35177;45.900;5.946;2023-06-19T10:38:06;4.60;;;3.97;;
49310;SDS011;35177;45.900;5.946;2023-06-19T10:40:32;5.68;;;3.90;;
49310;SDS011;35177;45.900;5.946;2023-06-19T10:42:58;3.95;;;3.50;;
49310;SDS011;35177;45.900;5.946;2023-06-19T10:45:23;7.05;;;3.58;;
49310;SDS011;35177;45.900;5.946;2023-06-19T10:47:53;5.95;;;4.50;;
49310;SDS011;35177;45.900;5.946;2023-06-19T10:50:20;6.47;;;4.20;;
49310;SDS011;35177;45.900;5.946;2023-06-19T10:52:46;6.88;;;4.30;;
49310;SDS011;35177;45.900;5.946;2023-06-19T10:55:13;4.30;;;3.70;;
49310;SDS011;35177;45.900;5.946;2023-06-19T10:57:40;6.72;;;3.78;;
49310;SDS011;35177;45.900;5.946;2023-06-19T11:00:09;7.50;;;4.35;;
49310;SDS011;35177;45.900;5.946;2023-06-19T11:02:40;5.75;;;4.30;;
49310;SDS011;35177;45.900;5.946;2023-06-19T11:05:08;4.78;;;3.92;;
49310;SDS011;35177;45.900;5.946;2023-06-19T11:07:37;7.78;;;3.65;;
49310;SDS011;35177;45.900;5.946;2023-06-19T11:10:03;3.85;;;3.53;;
49310;SDS011;35177;45.900;5.946;2023-06-19T11:12:30;6.38;;;4.22;;
49310;SDS011;35177;45.900;5.946;2023-06-19T11:14:57;5.07;;;4.10;;
49310;SDS011;35177;45.900;5.946;2023-06-19T11:17:22;5.68;;;3.80;;
49310;SDS011;35177;45.900;5.946;2023-06-19T11:19:49;6.28;;;4.18;;
49310;SDS011;35177;45.900;5.946;2023-06-19T11:22:17;6.60;;;4.40;;
49310;SDS011;35177;45.900;5.946;2023-06-19T11:24:43;5.95;;;4.00;;
49310;SDS011;35177;45.900;5.946;2023-06-19T11:27:18;5.03;;;3.97;;
49310;SDS011;35177;45.900;5.946;2023-06-19T11:29:54;5.70;;;4.05;;
49310;SDS011;35177;45.900;5.946;2023-06-19T11:32:21;7.93;;;4.20;;
49310;SDS011;35177;45.900;5.946;2023-06-19T11:34:49;5.05;;;4.00;;
49310;SDS011;35177;45.900;5.946;2023-06-19T11:37:18;6.00;;;4.13;;
49310;SDS011;35177;45.900;5.946;2023-06-19T11:39:46;5.63;;;3.97;;
49310;SDS011;35177;45.900;5.946;2023-06-19T11:42:13;7.82;;;4.22;;
49310;SDS011;35177;45.900;5.946;2023-06-19T11:44:54;4.65;;;4.18;;
49310;SDS011;35177;45.900;5.946;2023-06-19T11:47:21;8.32;;;4.55;;
49310;SDS011;35177;45.900;5.946;2023-06-19T11:49:50;4.60;;;4.20;;
49310;SDS011;35177;45.900;5.946;2023-06-19T11:52:16;6.65;;;4.10;;
49310;SDS011;35177;45.900;5.946;2023-06-19T11:54:41;4.90;;;4.40;;
49310;SDS011;35177;45.900;5.946;2023-06-19T11:57:08;4.68;;;4.13;;
49310;SDS011;35177;45.900;5.946;2023-06-19T11:59:38;4.88;;;4.35;;
49310;SDS011;35177;45.900;5.946;2023-06-19T12:02:07;10.20;;;4.68;;
49310;SDS011;35177;45.900;5.946;2023-06-19T12:04:33;7.32;;;5.03;;
49310;SDS011;35177;45.900;5.946;2023-06-19T12:06:59;4.90;;;4.40;;
49310;SDS011;35177;45.900;5.946;2023-06-19T12:09:25;6.78;;;4.72;;
49310;SDS011;35177;45.900;5.946;2023-06-19T12:11:51;6.32;;;4.70;;
49310;SDS011;35177;45.900;5.946;2023-06-19T12:14:17;5.28;;;4.43;;
49310;SDS011;35177;45.900;5.946;2023-06-19T12:16:47;4.40;;;3.92;;
49310;SDS011;35177;45.900;5.946;2023-06-19T12:19:12;4.90;;;4.20;;
49310;SDS011;35177;45.900;5.946;2023-06-19T12:21:38;7.03;;;4.43;;
49310;SDS011;35177;45.900;5.946;2023-06-19T12:24:03;4.00;;;3.55;;
49310;SDS011;35177;45.900;5.946;2023-06-19T12:26:29;4.60;;;4.18;;
49310;SDS011;35177;45.900;5.946;2023-06-19T12:28:55;4.68;;;3.72;;
49310;SDS011;35177;45.900;5.946;2023-06-19T12:31:20;4.10;;;3.70;;
49310;SDS011;35177;45.900;5.946;2023-06-19T12:33:46;5.15;;;3.92;;
49310;SDS011;35177;45.900;5.946;2023-06-19T12:36:14;4.60;;;4.07;;
49310;SDS011;35177;45.900;5.946;2023-06-19T12:38:40;5.13;;;4.47;;
49310;SDS011;35177;45.900;5.946;2023-06-19T12:41:05;4.68;;;3.90;;
49310;SDS011;35177;45.900;5.946;2023-06-19T12:43:32;7.90;;;4.07;;
49310;SDS011;35177;45.900;5.946;2023-06-19T12:45:58;5.10;;;4.30;;
49310;SDS011;35177;45.900;5.946;2023-06-19T12:48:27;4.30;;;3.90;;
49310;SDS011;35177;45.900;5.946;2023-06-19T12:50:52;5.97;;;4.00;;
49310;SDS011;35177;45.900;5.946;2023-06-19T12:53:19;4.85;;;3.80;;
49310;SDS011;35177;45.900;5.946;2023-06-19T12:55:44;4.45;;;3.63;;
49310;SDS011;35177;45.900;5.946;2023-06-19T12:58:22;5.15;;;3.58;;
49310;SDS011;35177;45.900;5.946;2023-06-19T13:00:48;3.92;;;3.50;;
49310;SDS011;35177;45.900;5.946;2023-06-19T13:03:13;6.18;;;3.60;;
49310;SDS011;35177;45.900;5.946;2023-06-19T13:05:39;8.80;;;3.65;;
49310;SDS011;35177;45.900;5.946;2023-06-19T13:08:04;3.17;;;2.72;;
49310;SDS011;35177;45.900;5.946;2023-06-19T13:10:30;4.78;;;3.53;;
49310;SDS011;35177;45.900;5.946;2023-06-19T13:12:55;5.97;;;3.67;;
49310;SDS011;35177;45.900;5.946;2023-06-19T13:15:23;3.53;;;3.22;;
49310;SDS011;35177;45.900;5.946;2023-06-19T13:17:49;3.67;;;3.38;;
49310;SDS011;35177;45.900;5.946;2023-06-19T13:20:15;4.53;;;3.70;;
49310;SDS011;35177;45.900;5.946;2023-06-19T13:22:40;3.53;;;3.22;;
49310;SDS011;35177;45.900;5.946;2023-06-19T13:25:06;5.60;;;3.60;;
49310;SDS011;35177;45.900;5.946;2023-06-19T13:27:32;4.10;;;3.28;;
49310;SDS011;35177;45.900;5.946;2023-06-19T13:29:59;4.30;;;3.80;;
49310;SDS011;35177;45.900;5.946;2023-06-19T13:32:25;4.72;;;3.63;;
49310;SDS011;35177;45.900;5.946;2023-06-19T13:34:51;4.45;;;3.90;;
49310;SDS011;35177;45.900;5.946;2023-06-19T13:37:18;4.20;;;3.58;;
49310;SDS011;35177;45.900;5.946;2023-06-19T13:39:43;5.40;;;4.10;;
49310;SDS011;35177;45.900;5.946;2023-06-19T13:42:09;4.78;;;3.72;;
49310;SDS011;35177;45.900;5.946;2023-06-19T13:44:36;4.05;;;3.33;;
49310;SDS011;35177;45.900;5.946;2023-06-19T13:47:02;5.63;;;3.70;;
49310;SDS011;35177;45.900;5.946;2023-06-19T13:49:28;5.20;;;3.75;;
49310;SDS011;35177;45.900;5.946;2023-06-19T13:51:54;4.63;;;4.03;;
49310;SDS011;35177;45.900;5.946;2023-06-19T13:54:20;4.38;;;3.70;;
49310;SDS011;35177;45.900;5.946;2023-06-19T13:56:46;4.32;;;3.92;;
49310;SDS011;35177;45.900;5.946;2023-06-19T13:59:12;4.50;;;3.50;;
49310;SDS011;35177;45.900;5.946;2023-06-19T14:01:38;4.50;;;3.17;;
49310;SDS011;35177;45.900;5.946;2023-06-19T14:04:04;5.03;;;4.25;;
49310;SDS011;35177;45.900;5.946;2023-06-19T14:06:30;4.38;;;3.97;;
49310;SDS011;35177;45.900;5.946;2023-06-19T14:08:55;4.40;;;3.95;;
49310;SDS011;35177;45.900;5.946;2023-06-19T14:11:21;5.13;;;3.70;;
49310;SDS011;35177;45.900;5.946;2023-06-19T14:13:46;4.40;;;3.85;;
49310;SDS011;35177;45.900;5.946;2023-06-19T14:16:16;5.03;;;4.13;;
49310;SDS011;35177;45.900;5.946;2023-06-19T14:18:41;4.28;;;3.50;;
49310;SDS011;35177;45.900;5.946;2023-06-19T14:21:07;3.60;;;3.25;;
49310;SDS011;35177;45.900;5.946;2023-06-19T14:23:32;4.10;;;3.70;;
49310;SDS011;35177;45.900;5.946;2023-06-19T14:26:03;5.35;;;3.55;;
49310;SDS011;35177;45.900;5.946;2023-06-19T14:28:29;4.88;;;3.78;;
49310;SDS011;35177;45.900;5.946;2023-06-19T14:30:54;4.57;;;3.88;;
49310;SDS011;35177;45.900;5.946;2023-06-19T14:33:20;6.30;;;3.83;;
49310;SDS011;35177;45.900;5.946;2023-06-19T14:35:45;6.00;;;3.90;;
49310;SDS011;35177;45.900;5.946;2023-06-19T14:38:12;4.00;;;3.60;;
49310;SDS011;35177;45.900;5.946;2023-06-19T14:40:43;7.97;;;4.40;;
49310;SDS011;35177;45.900;5.946;2023-06-19T14:43:09;5.20;;;4.00;;
49310;SDS011;35177;45.900;5.946;2023-06-19T14:45:35;4.75;;;3.75;;
49310;SDS011;35177;45.900;5.946;2023-06-19T14:48:01;5.00;;;3.60;;
49310;SDS011;35177;45.900;5.946;2023-06-19T14:50:27;5.88;;;3.85;;